sensor_id;sensor_type;location;lat;lon;timestamp;P1;durP1;ratioP1;P2;durP2;ratioP2
6249;SDS011;3158;52.148;11.568;2022-10-31T00:02:18;3.55;;;3.30;;
6249;SDS011;3158;52.148;11.568;2022-10-31T00:07:19;6.68;;;3.35;;
6249;SDS011;3158;52.148;11.568;2022-10-31T00:12:20;5.65;;;3.30;;
6249;SDS011;3158;52.148;11.568;2022-10-31T00:17:21;5.95;;;3.25;;
6249;SDS011;3158;52.148;11.568;2022-10-31T00:22:22;7.13;;;3.45;;
6249;SDS011;3158;52.148;11.568;2022-10-31T00:27:24;4.10;;;3.13;;
6249;SDS011;3158;52.148;11.568;2022-10-31T00:32:28;9.82;;;4.20;;
6249;SDS011;3158;52.148;11.568;2022-10-31T00:37:30;5.25;;;3.42;;
6249;SDS011;3158;52.148;11.568;2022-10-31T00:42:31;3.38;;;3.17;;
6249;SDS011;3158;52.148;11.568;2022-10-31T00:47:32;3.42;;;3.10;;
6249;SDS011;3158;52.148;11.568;2022-10-31T00:52:34;2.97;;;2.60;;
6249;SDS011;3158;52.148;11.568;2022-10-31T00:57:36;6.13;;;3.20;;
6249;SDS011;3158;52.148;11.568;2022-10-31T01:02:38;4.22;;;2.80;;
6249;SDS011;3158;52.148;11.568;2022-10-31T01:07:40;10.27;;;2.90;;
6249;SDS011;3158;52.148;11.568;2022-10-31T01:12:44;3.47;;;2.63;;
6249;SDS011;3158;52.148;11.568;2022-10-31T01:17:47;3.90;;;2.88;;
6249;SDS011;3158;52.148;11.568;2022-10-31T01:22:48;3.25;;;3.05;;
6249;SDS011;3158;52.148;11.568;2022-10-31T01:27:49;5.63;;;3.25;;
6249;SDS011;3158;52.148;11.568;2022-10-31T01:32:50;4.47;;;3.00;;
6249;SDS011;3158;52.148;11.568;2022-10-31T01:37:51;3.42;;;3.13;;
6249;SDS011;3158;52.148;11.568;2022-10-31T01:42:53;3.10;;;2.90;;
6249;SDS011;3158;52.148;11.568;2022-10-31T01:47:54;3.75;;;2.95;;
6249;SDS011;3158;52.148;11.568;2022-10-31T01:52:55;3.05;;;2.83;;
6249;SDS011;3158;52.148;11.568;2022-10-31T01:58:02;4.68;;;2.85;;
6249;SDS011;3158;52.148;11.568;2022-10-31T02:03:04;2.97;;;2.78;;
6249;SDS011;3158;52.148;11.568;2022-10-31T02:13:09;3.40;;;2.20;;
6249;SDS011;3158;52.148;11.568;2022-10-31T02:18:18;5.07;;;2.33;;
6249;SDS011;3158;52.148;11.568;2022-10-31T02:23:33;8.15;;;3.28;;
6249;SDS011;3158;52.148;11.568;2022-10-31T02:39:18;5.22;;;3.30;;
6249;SDS011;3158;52.148;11.568;2022-10-31T02:44:30;2.47;;;2.17;;
6249;SDS011;3158;52.148;11.568;2022-10-31T02:49:50;2.85;;;2.70;;
6249;SDS011;3158;52.148;11.568;2022-10-31T02:54:54;2.78;;;2.58;;
6249;SDS011;3158;52.148;11.568;2022-10-31T03:00:00;2.50;;;2.30;;
6249;SDS011;3158;52.148;11.568;2022-10-31T03:10:17;2.67;;;2.20;;
6249;SDS011;3158;52.148;11.568;2022-10-31T03:20:24;2.70;;;2.60;;
6249;SDS011;3158;52.148;11.568;2022-10-31T03:25:27;4.88;;;2.75;;
6249;SDS011;3158;52.148;11.568;2022-10-31T03:30:30;2.83;;;2.63;;
6249;SDS011;3158;52.148;11.568;2022-10-31T03:35:34;3.03;;;2.63;;
6249;SDS011;3158;52.148;11.568;2022-10-31T03:40:36;4.85;;;2.67;;
6249;SDS011;3158;52.148;11.568;2022-10-31T03:45:40;4.07;;;3.10;;
6249;SDS011;3158;52.148;11.568;2022-10-31T03:56:09;3.90;;;2.78;;
6249;SDS011;3158;52.148;11.568;2022-10-31T04:01:11;3.17;;;2.58;;
6249;SDS011;3158;52.148;11.568;2022-10-31T04:06:15;4.13;;;3.38;;
6249;SDS011;3158;52.148;11.568;2022-10-31T04:11:18;5.03;;;3.08;;
6249;SDS011;3158;52.148;11.568;2022-10-31T04:16:29;3.08;;;2.88;;
6249;SDS011;3158;52.148;11.568;2022-10-31T04:21:30;3.53;;;3.30;;
6249;SDS011;3158;52.148;11.568;2022-10-31T04:26:32;4.47;;;3.13;;
6249;SDS011;3158;52.148;11.568;2022-10-31T04:31:33;3.50;;;3.17;;
6249;SDS011;3158;52.148;11.568;2022-10-31T04:36:34;7.88;;;3.67;;
6249;SDS011;3158;52.148;11.568;2022-10-31T04:41:35;4.10;;;3.65;;
6249;SDS011;3158;52.148;11.568;2022-10-31T04:46:42;3.42;;;2.97;;
6249;SDS011;3158;52.148;11.568;2022-10-31T04:51:44;9.20;;;4.28;;
6249;SDS011;3158;52.148;11.568;2022-10-31T04:56:47;5.35;;;4.28;;
6249;SDS011;3158;52.148;11.568;2022-10-31T05:01:54;3.53;;;3.22;;
6249;SDS011;3158;52.148;11.568;2022-10-31T05:07:02;9.48;;;3.95;;
6249;SDS011;3158;52.148;11.568;2022-10-31T05:12:04;6.20;;;4.28;;
6249;SDS011;3158;52.148;11.568;2022-10-31T05:17:25;12.75;;;4.90;;
6249;SDS011;3158;52.148;11.568;2022-10-31T05:22:59;7.75;;;4.63;;
6249;SDS011;3158;52.148;11.568;2022-10-31T05:28:01;16.85;;;7.93;;
6249;SDS011;3158;52.148;11.568;2022-10-31T05:33:02;15.95;;;8.30;;
6249;SDS011;3158;52.148;11.568;2022-10-31T05:38:22;17.48;;;8.18;;
6249;SDS011;3158;52.148;11.568;2022-10-31T05:43:23;16.23;;;8.20;;
6249;SDS011;3158;52.148;11.568;2022-10-31T05:48:24;20.65;;;9.27;;
6249;SDS011;3158;52.148;11.568;2022-10-31T05:54:01;19.48;;;9.52;;
6249;SDS011;3158;52.148;11.568;2022-10-31T05:59:03;18.15;;;8.68;;
6249;SDS011;3158;52.148;11.568;2022-10-31T06:04:04;19.45;;;8.73;;
6249;SDS011;3158;52.148;11.568;2022-10-31T06:09:07;17.92;;;9.07;;
6249;SDS011;3158;52.148;11.568;2022-10-31T06:14:10;19.35;;;9.82;;
6249;SDS011;3158;52.148;11.568;2022-10-31T06:19:40;21.60;;;9.27;;
6249;SDS011;3158;52.148;11.568;2022-10-31T06:24:42;24.60;;;10.57;;
6249;SDS011;3158;52.148;11.568;2022-10-31T06:30:05;25.85;;;10.88;;
6249;SDS011;3158;52.148;11.568;2022-10-31T06:35:09;30.02;;;11.23;;
6249;SDS011;3158;52.148;11.568;2022-10-31T06:40:11;26.60;;;10.38;;
6249;SDS011;3158;52.148;11.568;2022-10-31T06:45:32;37.55;;;13.15;;
6249;SDS011;3158;52.148;11.568;2022-10-31T06:50:51;50.75;;;16.13;;
6249;SDS011;3158;52.148;11.568;2022-10-31T06:55:52;55.17;;;18.70;;
6249;SDS011;3158;52.148;11.568;2022-10-31T07:00:53;72.82;;;21.75;;
6249;SDS011;3158;52.148;11.568;2022-10-31T07:05:55;76.10;;;21.80;;
6249;SDS011;3158;52.148;11.568;2022-10-31T07:10:57;64.50;;;21.52;;
6249;SDS011;3158;52.148;11.568;2022-10-31T07:16:00;71.03;;;22.10;;
6249;SDS011;3158;52.148;11.568;2022-10-31T07:21:02;67.05;;;21.73;;
6249;SDS011;3158;52.148;11.568;2022-10-31T07:26:03;71.20;;;20.98;;
6249;SDS011;3158;52.148;11.568;2022-10-31T07:31:12;79.15;;;23.02;;
6249;SDS011;3158;52.148;11.568;2022-10-31T07:36:14;83.30;;;25.10;;
6249;SDS011;3158;52.148;11.568;2022-10-31T07:41:18;93.35;;;24.15;;
6249;SDS011;3158;52.148;11.568;2022-10-31T07:46:21;83.55;;;24.05;;
6249;SDS011;3158;52.148;11.568;2022-10-31T07:51:48;74.65;;;21.63;;
6249;SDS011;3158;52.148;11.568;2022-10-31T07:57:08;76.50;;;22.60;;
6249;SDS011;3158;52.148;11.568;2022-10-31T08:02:09;79.03;;;21.63;;
6249;SDS011;3158;52.148;11.568;2022-10-31T08:07:22;75.43;;;21.90;;
6249;SDS011;3158;52.148;11.568;2022-10-31T08:12:30;74.88;;;21.35;;
6249;SDS011;3158;52.148;11.568;2022-10-31T08:17:34;93.63;;;22.25;;
6249;SDS011;3158;52.148;11.568;2022-10-31T08:22:35;72.18;;;21.58;;
6249;SDS011;3158;52.148;11.568;2022-10-31T08:27:37;65.03;;;21.13;;
6249;SDS011;3158;52.148;11.568;2022-10-31T08:32:38;72.53;;;22.40;;
6249;SDS011;3158;52.148;11.568;2022-10-31T08:37:58;81.20;;;21.70;;
6249;SDS011;3158;52.148;11.568;2022-10-31T08:43:02;87.22;;;24.80;;
6249;SDS011;3158;52.148;11.568;2022-10-31T08:48:04;76.30;;;23.63;;
6249;SDS011;3158;52.148;11.568;2022-10-31T08:53:07;54.08;;;20.35;;
6249;SDS011;3158;52.148;11.568;2022-10-31T08:58:12;67.28;;;21.15;;
6249;SDS011;3158;52.148;11.568;2022-10-31T09:03:21;66.03;;;21.75;;
6249;SDS011;3158;52.148;11.568;2022-10-31T09:08:22;65.13;;;19.88;;
6249;SDS011;3158;52.148;11.568;2022-10-31T09:13:24;70.00;;;20.05;;
6249;SDS011;3158;52.148;11.568;2022-10-31T09:18:44;67.18;;;21.00;;
6249;SDS011;3158;52.148;11.568;2022-10-31T09:23:50;64.80;;;19.65;;
6249;SDS011;3158;52.148;11.568;2022-10-31T09:28:53;63.90;;;20.17;;
6249;SDS011;3158;52.148;11.568;2022-10-31T09:33:57;60.38;;;18.65;;
6249;SDS011;3158;52.148;11.568;2022-10-31T09:39:10;48.75;;;16.85;;
6249;SDS011;3158;52.148;11.568;2022-10-31T09:59:37;58.78;;;20.55;;
6249;SDS011;3158;52.148;11.568;2022-10-31T10:04:58;52.70;;;19.45;;
6249;SDS011;3158;52.148;11.568;2022-10-31T10:10:00;50.28;;;19.55;;
6249;SDS011;3158;52.148;11.568;2022-10-31T10:25:53;57.00;;;19.95;;
6249;SDS011;3158;52.148;11.568;2022-10-31T10:31:06;48.60;;;20.02;;
6249;SDS011;3158;52.148;11.568;2022-10-31T10:36:12;54.63;;;19.65;;
6249;SDS011;3158;52.148;11.568;2022-10-31T10:41:19;61.08;;;19.65;;
6249;SDS011;3158;52.148;11.568;2022-10-31T10:46:27;54.90;;;18.98;;
6249;SDS011;3158;52.148;11.568;2022-10-31T10:51:59;49.30;;;18.98;;
6249;SDS011;3158;52.148;11.568;2022-10-31T10:57:05;47.17;;;18.38;;
6249;SDS011;3158;52.148;11.568;2022-10-31T11:02:44;52.97;;;19.65;;
6249;SDS011;3158;52.148;11.568;2022-10-31T11:07:39;60.25;;;24.33;;
6249;SDS011;3158;52.148;11.568;2022-10-31T11:12:40;46.63;;;20.80;;
6249;SDS011;3158;52.148;11.568;2022-10-31T11:17:42;48.88;;;19.75;;
6249;SDS011;3158;52.148;11.568;2022-10-31T11:22:44;53.92;;;18.33;;
6249;SDS011;3158;52.148;11.568;2022-10-31T11:27:45;42.22;;;19.13;;
6249;SDS011;3158;52.148;11.568;2022-10-31T11:32:48;54.50;;;19.33;;
6249;SDS011;3158;52.148;11.568;2022-10-31T11:37:51;51.15;;;18.73;;
6249;SDS011;3158;52.148;11.568;2022-10-31T11:42:58;36.78;;;17.02;;
6249;SDS011;3158;52.148;11.568;2022-10-31T11:48:00;43.55;;;17.30;;
6249;SDS011;3158;52.148;11.568;2022-10-31T11:53:02;43.88;;;19.10;;
6249;SDS011;3158;52.148;11.568;2022-10-31T11:58:04;41.65;;;17.23;;
6249;SDS011;3158;52.148;11.568;2022-10-31T12:08:15;48.22;;;18.48;;
6249;SDS011;3158;52.148;11.568;2022-10-31T12:34:27;34.97;;;16.55;;
6249;SDS011;3158;52.148;11.568;2022-10-31T12:39:32;41.13;;;17.48;;
6249;SDS011;3158;52.148;11.568;2022-10-31T12:50:06;36.30;;;16.88;;
6249;SDS011;3158;52.148;11.568;2022-10-31T13:00:18;38.20;;;17.70;;
6249;SDS011;3158;52.148;11.568;2022-10-31T13:10:22;36.10;;;16.98;;
6249;SDS011;3158;52.148;11.568;2022-10-31T13:15:25;31.15;;;16.38;;
6249;SDS011;3158;52.148;11.568;2022-10-31T13:20:34;46.40;;;20.30;;
6249;SDS011;3158;52.148;11.568;2022-10-31T13:25:40;54.55;;;24.65;;
6249;SDS011;3158;52.148;11.568;2022-10-31T13:30:43;37.80;;;17.60;;
6249;SDS011;3158;52.148;11.568;2022-10-31T13:45:53;45.05;;;17.70;;
6249;SDS011;3158;52.148;11.568;2022-10-31T13:51:12;43.78;;;19.15;;
6249;SDS011;3158;52.148;11.568;2022-10-31T13:56:29;48.05;;;19.88;;
6249;SDS011;3158;52.148;11.568;2022-10-31T14:01:31;40.20;;;19.23;;
6249;SDS011;3158;52.148;11.568;2022-10-31T14:07:15;48.45;;;17.80;;
6249;SDS011;3158;52.148;11.568;2022-10-31T14:11:58;50.78;;;19.00;;
6249;SDS011;3158;52.148;11.568;2022-10-31T14:17:00;43.17;;;18.45;;
6249;SDS011;3158;52.148;11.568;2022-10-31T14:22:02;41.38;;;18.15;;
6249;SDS011;3158;52.148;11.568;2022-10-31T14:27:48;54.55;;;19.50;;
6249;SDS011;3158;52.148;11.568;2022-10-31T14:32:25;46.05;;;19.05;;
6249;SDS011;3158;52.148;11.568;2022-10-31T14:53:01;50.55;;;18.52;;
6249;SDS011;3158;52.148;11.568;2022-10-31T14:58:05;62.10;;;19.60;;
6249;SDS011;3158;52.148;11.568;2022-10-31T15:08:32;37.13;;;17.45;;
6249;SDS011;3158;52.148;11.568;2022-10-31T15:13:33;42.55;;;16.38;;
6249;SDS011;3158;52.148;11.568;2022-10-31T15:18:35;43.45;;;17.00;;
6249;SDS011;3158;52.148;11.568;2022-10-31T15:23:36;47.90;;;19.92;;
6249;SDS011;3158;52.148;11.568;2022-10-31T15:28:37;47.33;;;19.27;;
6249;SDS011;3158;52.148;11.568;2022-10-31T15:33:45;103.18;;;30.88;;
6249;SDS011;3158;52.148;11.568;2022-10-31T15:38:48;58.72;;;23.88;;
6249;SDS011;3158;52.148;11.568;2022-10-31T15:43:49;64.82;;;28.10;;
6249;SDS011;3158;52.148;11.568;2022-10-31T15:48:50;50.35;;;26.40;;
6249;SDS011;3158;52.148;11.568;2022-10-31T15:53:52;43.63;;;20.30;;
6249;SDS011;3158;52.148;11.568;2022-10-31T15:58:55;44.38;;;20.23;;
6249;SDS011;3158;52.148;11.568;2022-10-31T16:04:01;51.20;;;21.60;;
6249;SDS011;3158;52.148;11.568;2022-10-31T16:09:03;53.20;;;24.95;;
6249;SDS011;3158;52.148;11.568;2022-10-31T16:14:06;49.28;;;22.27;;
6249;SDS011;3158;52.148;11.568;2022-10-31T16:19:15;48.05;;;19.52;;
6249;SDS011;3158;52.148;11.568;2022-10-31T16:24:31;49.60;;;19.60;;
6249;SDS011;3158;52.148;11.568;2022-10-31T16:29:37;56.30;;;22.95;;
6249;SDS011;3158;52.148;11.568;2022-10-31T16:34:38;52.30;;;21.67;;
6249;SDS011;3158;52.148;11.568;2022-10-31T16:39:39;57.72;;;24.27;;
6249;SDS011;3158;52.148;11.568;2022-10-31T16:44:41;91.65;;;32.60;;
6249;SDS011;3158;52.148;11.568;2022-10-31T16:49:46;63.70;;;29.00;;
6249;SDS011;3158;52.148;11.568;2022-10-31T16:54:47;52.65;;;22.90;;
6249;SDS011;3158;52.148;11.568;2022-10-31T16:59:51;52.25;;;22.40;;
6249;SDS011;3158;52.148;11.568;2022-10-31T17:04:53;52.88;;;21.75;;
6249;SDS011;3158;52.148;11.568;2022-10-31T17:09:55;60.05;;;21.50;;
6249;SDS011;3158;52.148;11.568;2022-10-31T17:14:56;51.13;;;21.73;;
6249;SDS011;3158;52.148;11.568;2022-10-31T17:19:57;51.22;;;19.48;;
6249;SDS011;3158;52.148;11.568;2022-10-31T17:24:58;48.30;;;20.63;;
6249;SDS011;3158;52.148;11.568;2022-10-31T17:29:59;52.42;;;21.42;;
6249;SDS011;3158;52.148;11.568;2022-10-31T17:35:00;46.88;;;19.55;;
6249;SDS011;3158;52.148;11.568;2022-10-31T17:40:02;53.50;;;19.38;;
6249;SDS011;3158;52.148;11.568;2022-10-31T17:45:04;45.17;;;21.10;;
6249;SDS011;3158;52.148;11.568;2022-10-31T17:50:05;51.08;;;21.92;;
6249;SDS011;3158;52.148;11.568;2022-10-31T17:55:07;52.08;;;22.23;;
6249;SDS011;3158;52.148;11.568;2022-10-31T18:00:10;48.47;;;21.10;;
6249;SDS011;3158;52.148;11.568;2022-10-31T18:05:11;50.05;;;21.40;;
6249;SDS011;3158;52.148;11.568;2022-10-31T18:10:13;45.80;;;21.17;;
6249;SDS011;3158;52.148;11.568;2022-10-31T18:15:14;47.92;;;19.08;;
6249;SDS011;3158;52.148;11.568;2022-10-31T18:20:16;52.78;;;22.33;;
6249;SDS011;3158;52.148;11.568;2022-10-31T18:25:17;43.75;;;20.25;;
6249;SDS011;3158;52.148;11.568;2022-10-31T18:30:18;51.67;;;21.90;;
6249;SDS011;3158;52.148;11.568;2022-10-31T18:35:19;42.55;;;21.40;;
6249;SDS011;3158;52.148;11.568;2022-10-31T18:40:20;45.78;;;20.77;;
6249;SDS011;3158;52.148;11.568;2022-10-31T18:45:22;43.67;;;19.30;;
6249;SDS011;3158;52.148;11.568;2022-10-31T18:50:23;40.58;;;18.67;;
6249;SDS011;3158;52.148;11.568;2022-10-31T18:55:24;69.47;;;25.13;;
6249;SDS011;3158;52.148;11.568;2022-10-31T19:00:25;54.58;;;21.60;;
6249;SDS011;3158;52.148;11.568;2022-10-31T19:05:26;211.75;;;85.00;;
6249;SDS011;3158;52.148;11.568;2022-10-31T19:10:27;293.55;;;121.55;;
6249;SDS011;3158;52.148;11.568;2022-10-31T19:15:29;86.10;;;42.20;;
6249;SDS011;3158;52.148;11.568;2022-10-31T19:20:30;123.68;;;60.22;;
6249;SDS011;3158;52.148;11.568;2022-10-31T19:25:32;119.75;;;51.88;;
6249;SDS011;3158;52.148;11.568;2022-10-31T19:30:33;49.88;;;23.45;;
6249;SDS011;3158;52.148;11.568;2022-10-31T19:35:35;84.32;;;42.05;;
6249;SDS011;3158;52.148;11.568;2022-10-31T19:40:36;53.08;;;19.35;;
6249;SDS011;3158;52.148;11.568;2022-10-31T19:45:37;40.08;;;20.75;;
6249;SDS011;3158;52.148;11.568;2022-10-31T19:50:38;48.65;;;21.75;;
6249;SDS011;3158;52.148;11.568;2022-10-31T19:55:39;55.05;;;24.33;;
6249;SDS011;3158;52.148;11.568;2022-10-31T20:00:40;64.63;;;25.88;;
6249;SDS011;3158;52.148;11.568;2022-10-31T20:05:43;49.95;;;22.35;;
6249;SDS011;3158;52.148;11.568;2022-10-31T20:10:54;52.28;;;21.38;;
6249;SDS011;3158;52.148;11.568;2022-10-31T20:15:57;40.17;;;19.50;;
6249;SDS011;3158;52.148;11.568;2022-10-31T20:26:03;36.83;;;18.23;;
6249;SDS011;3158;52.148;11.568;2022-10-31T20:31:09;56.85;;;20.30;;
6249;SDS011;3158;52.148;11.568;2022-10-31T20:36:10;43.95;;;20.88;;
6249;SDS011;3158;52.148;11.568;2022-10-31T20:41:12;40.22;;;17.45;;
6249;SDS011;3158;52.148;11.568;2022-10-31T20:46:17;35.65;;;17.58;;
6249;SDS011;3158;52.148;11.568;2022-10-31T20:51:23;38.90;;;17.15;;
6249;SDS011;3158;52.148;11.568;2022-10-31T20:56:25;39.80;;;19.35;;
6249;SDS011;3158;52.148;11.568;2022-10-31T21:01:28;38.65;;;18.13;;
6249;SDS011;3158;52.148;11.568;2022-10-31T21:06:29;44.60;;;20.35;;
6249;SDS011;3158;52.148;11.568;2022-10-31T21:11:31;38.78;;;17.63;;
6249;SDS011;3158;52.148;11.568;2022-10-31T21:16:32;39.67;;;17.67;;
6249;SDS011;3158;52.148;11.568;2022-10-31T21:21:35;33.05;;;16.80;;
6249;SDS011;3158;52.148;11.568;2022-10-31T21:26:38;43.60;;;18.05;;
6249;SDS011;3158;52.148;11.568;2022-10-31T21:31:40;31.52;;;16.40;;
6249;SDS011;3158;52.148;11.568;2022-10-31T21:36:41;41.28;;;19.17;;
6249;SDS011;3158;52.148;11.568;2022-10-31T21:41:42;34.60;;;17.48;;
6249;SDS011;3158;52.148;11.568;2022-10-31T21:46:43;50.72;;;18.70;;
6249;SDS011;3158;52.148;11.568;2022-10-31T21:51:47;41.25;;;18.90;;
6249;SDS011;3158;52.148;11.568;2022-10-31T21:56:48;33.22;;;17.70;;
6249;SDS011;3158;52.148;11.568;2022-10-31T22:01:51;37.63;;;18.08;;
6249;SDS011;3158;52.148;11.568;2022-10-31T22:06:52;37.38;;;17.52;;
6249;SDS011;3158;52.148;11.568;2022-10-31T22:11:53;35.63;;;17.05;;
6249;SDS011;3158;52.148;11.568;2022-10-31T22:16:54;33.08;;;15.85;;
6249;SDS011;3158;52.148;11.568;2022-10-31T22:21:55;32.63;;;17.10;;
6249;SDS011;3158;52.148;11.568;2022-10-31T22:26:57;35.80;;;17.00;;
6249;SDS011;3158;52.148;11.568;2022-10-31T22:31:59;31.85;;;15.70;;
6249;SDS011;3158;52.148;11.568;2022-10-31T22:37:02;42.00;;;17.92;;
6249;SDS011;3158;52.148;11.568;2022-10-31T22:42:03;41.40;;;16.20;;
6249;SDS011;3158;52.148;11.568;2022-10-31T22:47:04;28.45;;;16.25;;
6249;SDS011;3158;52.148;11.568;2022-10-31T22:52:06;33.88;;;16.42;;
6249;SDS011;3158;52.148;11.568;2022-10-31T22:57:07;47.08;;;17.48;;
6249;SDS011;3158;52.148;11.568;2022-10-31T23:02:08;28.60;;;16.60;;
6249;SDS011;3158;52.148;11.568;2022-10-31T23:07:09;34.83;;;17.73;;
6249;SDS011;3158;52.148;11.568;2022-10-31T23:12:10;32.55;;;16.75;;
6249;SDS011;3158;52.148;11.568;2022-10-31T23:17:30;29.80;;;16.27;;
6249;SDS011;3158;52.148;11.568;2022-10-31T23:22:31;44.75;;;16.42;;
6249;SDS011;3158;52.148;11.568;2022-10-31T23:27:32;32.72;;;16.55;;
6249;SDS011;3158;52.148;11.568;2022-10-31T23:32:35;31.02;;;17.30;;
6249;SDS011;3158;52.148;11.568;2022-10-31T23:37:37;38.67;;;18.13;;
6249;SDS011;3158;52.148;11.568;2022-10-31T23:42:38;35.38;;;17.25;;
6249;SDS011;3158;52.148;11.568;2022-10-31T23:47:39;34.72;;;16.85;;
6249;SDS011;3158;52.148;11.568;2022-10-31T23:52:40;51.92;;;17.10;;
6249;SDS011;3158;52.148;11.568;2022-10-31T23:57:41;57.38;;;17.92;;
